Time;durP1;ratioP1;P1;durP2;ratioP2;P2;SDS_P1;SDS_P2;PMS_P1;PMS_P2;Temp;Humidity;BMP_temperature;BMP_pressure;BME280_temperature;BME280_humidity;BME280_pressure;Samples;Min_cycle;Max_cycle;Signal;HPM_P1;HPM_P2
2022/10/06 00:01:11;;;;;;;7.40;1.33;;;12.20;99.90;;;;;;4979313;28;20940;-56
2022/10/06 00:03:39;;;;;;;3.25;1.42;;;12.20;99.90;;;;;;4967097;28;20368;-56
2022/10/06 00:06:09;;;;;;;3.05;1.67;;;12.20;99.90;;;;;;4976381;28;20045;-55
2022/10/06 00:08:38;;;;;;;4.32;1.25;;;12.20;99.90;;;;;;4963113;28;20357;-57
2022/10/06 00:11:07;;;;;;;3.72;1.42;;;12.20;99.90;;;;;;4963035;28;20063;-55
2022/10/06 00:13:36;;;;;;;2.53;1.90;;;12.20;99.90;;;;;;4965753;28;20293;-55
2022/10/06 00:16:12;;;;;;;2.35;1.15;;;12.20;99.90;;;;;;4966872;28;20970;-56
2022/10/06 00:18:39;;;;;;;2.08;1.20;;;12.20;99.90;;;;;;4960758;28;20357;-56
2022/10/06 00:21:07;;;;;;;1.27;1.10;;;12.20;99.90;;;;;;4964031;28;20394;-56
2022/10/06 00:23:34;;;;;;;4.60;1.45;;;12.20;99.90;;;;;;4961557;28;20192;-57
2022/10/06 00:26:01;;;;;;;1.30;1.10;;;12.20;99.90;;;;;;4961262;28;20267;-56
2022/10/06 00:28:28;;;;;;;3.38;1.30;;;12.20;99.90;;;;;;4979498;28;20298;-56
2022/10/06 00:31:01;;;;;;;4.78;1.67;;;12.10;99.90;;;;;;4963513;28;20244;-54
2022/10/06 00:33:29;;;;;;;3.50;1.40;;;12.10;99.90;;;;;;4978004;28;20317;-57
2022/10/06 00:35:57;;;;;;;3.90;1.52;;;12.10;99.90;;;;;;4964076;28;20049;-54
2022/10/06 00:38:25;;;;;;;6.07;1.52;;;12.10;99.90;;;;;;4963570;28;20321;-56
2022/10/06 00:40:53;;;;;;;5.50;1.52;;;12.00;99.90;;;;;;4954371;28;20156;-56
2022/10/06 00:43:38;;;;;;;2.35;1.17;;;12.00;99.90;;;;;;4964662;28;20230;-57
2022/10/06 00:46:27;;;;;;;5.00;2.03;;;12.00;99.90;;;;;;4963254;28;20081;-57
2022/10/06 00:49:02;;;;;;;3.25;1.58;;;12.00;99.90;;;;;;4961912;28;20046;-56
2022/10/06 00:51:30;;;;;;;7.03;1.55;;;12.00;99.90;;;;;;4951925;28;20160;-56
2022/10/06 00:53:57;;;;;;;2.97;1.50;;;12.00;99.90;;;;;;4960458;28;20042;-56
2022/10/06 00:56:25;;;;;;;5.03;1.83;;;12.00;99.90;;;;;;4947320;28;20325;-56
2022/10/06 00:58:52;;;;;;;4.05;1.65;;;12.00;99.90;;;;;;4964303;28;20463;-56
2022/10/06 01:01:20;;;;;;;6.53;1.90;;;12.00;99.90;;;;;;4964628;28;20041;-55
2022/10/06 01:03:54;;;;;;;6.97;2.03;;;12.00;99.90;;;;;;4965109;28;20824;-54
2022/10/06 01:06:21;;;;;;;6.72;1.90;;;12.00;99.90;;;;;;4974275;28;20373;-53
2022/10/06 01:08:49;;;;;;;3.85;1.50;;;12.00;99.90;;;;;;4962203;28;20072;-55
2022/10/06 01:11:16;;;;;;;17.95;2.38;;;12.00;99.90;;;;;;4963088;28;20075;-54
2022/10/06 01:13:45;;;;;;;8.05;1.52;;;11.90;99.90;;;;;;4966322;28;20042;-55
2022/10/06 01:16:23;;;;;;;7.60;1.50;;;11.90;99.90;;;;;;4964978;28;20055;-54
2022/10/06 01:18:53;;;;;;;5.70;1.50;;;11.90;99.90;;;;;;4953575;28;20719;-55
2022/10/06 01:21:33;;;;;;;3.40;1.58;;;11.90;99.90;;;;;;4960521;28;20290;-54
2022/10/06 01:24:02;;;;;;;5.57;1.58;;;11.90;99.90;;;;;;4954339;28;20834;-54
2022/10/06 01:26:33;;;;;;;8.68;1.88;;;11.80;99.90;;;;;;4952355;28;20234;-54
2022/10/06 01:29:02;;;;;;;4.57;1.83;;;11.90;99.90;;;;;;4952034;28;20407;-54
2022/10/06 01:31:30;;;;;;;5.47;1.73;;;11.80;99.90;;;;;;4961807;28;20371;-53
2022/10/06 01:33:58;;;;;;;3.58;1.77;;;11.80;99.90;;;;;;4964644;28;20050;-55
2022/10/06 01:36:25;;;;;;;2.97;1.65;;;11.90;99.90;;;;;;4955262;28;20391;-54
2022/10/06 01:38:52;;;;;;;2.78;1.50;;;11.90;99.90;;;;;;4965467;28;20379;-54
2022/10/06 01:41:21;;;;;;;3.80;1.65;;;11.90;99.90;;;;;;4942204;28;20210;-53
2022/10/06 01:43:49;;;;;;;2.15;1.88;;;11.90;99.90;;;;;;4965378;28;20253;-54
2022/10/06 01:46:16;;;;;;;3.80;1.88;;;11.90;99.90;;;;;;4959823;28;20045;-54
2022/10/06 01:48:44;;;;;;;3.58;1.85;;;12.00;99.90;;;;;;4960397;28;20345;-54
2022/10/06 01:51:15;;;;;;;4.35;1.80;;;12.00;99.90;;;;;;4952916;28;20681;-53
2022/10/06 01:53:42;;;;;;;6.85;1.85;;;12.10;99.90;;;;;;4963482;28;20158;-54
2022/10/06 01:56:10;;;;;;;3.25;1.55;;;12.10;99.90;;;;;;4944202;28;20211;-54
2022/10/06 01:58:38;;;;;;;7.40;2.03;;;12.10;99.90;;;;;;4969633;28;20080;-53
2022/10/06 02:01:07;;;;;;;3.38;2.17;;;12.10;99.90;;;;;;4948758;28;21136;-55
2022/10/06 02:03:37;;;;;;;3.33;1.65;;;12.00;99.90;;;;;;4958352;28;20500;-54
2022/10/06 02:06:04;;;;;;;3.25;1.95;;;12.10;99.90;;;;;;4962932;28;20321;-55
2022/10/06 02:08:32;;;;;;;8.65;1.70;;;12.10;99.90;;;;;;4951847;28;20368;-56
2022/10/06 02:11:08;;;;;;;3.55;2.00;;;12.10;99.90;;;;;;4970239;28;20351;-57
2022/10/06 02:13:40;;;;;;;6.47;2.65;;;12.10;99.90;;;;;;4965684;28;20053;-56
2022/10/06 02:16:08;;;;;;;9.30;2.85;;;12.20;99.90;;;;;;4957928;28;20042;-56
2022/10/06 02:18:36;;;;;;;5.07;2.45;;;12.20;99.90;;;;;;4946444;28;20399;-56
2022/10/06 02:21:04;;;;;;;7.90;2.70;;;12.20;99.90;;;;;;4956900;28;20354;-55
2022/10/06 02:23:32;;;;;;;4.97;2.20;;;12.30;99.90;;;;;;4960335;28;20045;-56
2022/10/06 02:26:00;;;;;;;8.90;2.30;;;12.20;99.90;;;;;;4983759;28;20270;-56
2022/10/06 02:28:28;;;;;;;6.88;2.40;;;12.20;99.90;;;;;;4952375;28;20479;-56
2022/10/06 02:31:02;;;;;;;4.97;2.65;;;12.20;99.90;;;;;;4943743;28;20282;-57
2022/10/06 02:33:30;;;;;;;10.73;2.65;;;12.20;99.90;;;;;;4960936;28;20255;-55
2022/10/06 02:35:58;;;;;;;3.60;2.65;;;12.20;99.90;;;;;;4962772;28;20590;-57
2022/10/06 02:38:27;;;;;;;4.53;2.58;;;12.20;99.90;;;;;;4963006;28;20125;-57
2022/10/06 02:40:56;;;;;;;6.03;2.50;;;12.20;99.90;;;;;;4950570;28;20777;-55
2022/10/06 02:43:30;;;;;;;8.57;2.55;;;12.20;99.90;;;;;;4940828;28;20423;-55
2022/10/06 02:46:02;;;;;;;6.05;2.50;;;12.10;99.90;;;;;;4962741;28;20812;-54
2022/10/06 02:48:30;;;;;;;7.05;2.53;;;12.20;99.90;;;;;;4960034;28;20399;-56
2022/10/06 02:51:01;;;;;;;6.22;2.60;;;12.10;99.90;;;;;;4957326;28;20478;-55
2022/10/06 02:53:28;;;;;;;3.08;2.10;;;12.20;99.90;;;;;;4962740;28;20452;-54
2022/10/06 02:56:00;;;;;;;3.72;2.65;;;12.10;99.90;;;;;;4962706;28;20416;-56
2022/10/06 02:58:31;;;;;;;4.65;2.47;;;12.20;99.90;;;;;;4962463;28;20758;-55
2022/10/06 03:01:06;;;;;;;3.50;2.08;;;12.20;99.90;;;;;;4968471;28;20267;-57
2022/10/06 03:03:34;;;;;;;3.85;2.20;;;12.10;99.90;;;;;;4958156;28;20852;-56
2022/10/06 03:06:03;;;;;;;9.73;2.45;;;12.10;99.90;;;;;;4964623;28;20306;-57
2022/10/06 03:08:32;;;;;;;8.20;2.13;;;12.10;99.90;;;;;;4958218;28;20504;-56
2022/10/06 03:11:05;;;;;;;6.07;2.03;;;12.00;99.90;;;;;;4958617;28;20061;-56
2022/10/06 03:13:32;;;;;;;4.35;2.30;;;12.00;99.90;;;;;;4975931;28;20738;-56
2022/10/06 03:15:59;;;;;;;;;;;12.00;99.90;;;;;;4947865;28;20052;-56
2022/10/06 03:18:28;;;;;;;8.27;3.25;;;11.90;99.90;;;;;;4954048;28;20872;-54
2022/10/06 03:20:59;;;;;;;9.25;2.40;;;11.90;99.90;;;;;;4956651;28;20111;-56
2022/10/06 03:23:27;;;;;;;3.60;2.58;;;11.90;99.90;;;;;;4959629;28;20562;-57
2022/10/06 03:25:55;;;;;;;2.50;2.10;;;11.80;99.90;;;;;;4952479;28;20485;-56
2022/10/06 03:28:22;;;;;;;3.75;2.80;;;11.80;99.90;;;;;;4956692;28;20049;-55
2022/10/06 03:30:50;;;;;;;5.10;2.38;;;11.80;99.90;;;;;;4959728;28;20409;-57
2022/10/06 03:33:17;;;;;;;5.03;1.95;;;11.80;99.90;;;;;;4960808;28;20298;-56
2022/10/06 03:35:46;;;;;;;3.25;2.22;;;11.80;99.90;;;;;;4972687;28;20310;-56
2022/10/06 03:38:13;;;;;;;3.30;2.10;;;11.70;99.90;;;;;;4962881;28;20424;-55
2022/10/06 03:40:41;;;;;;;2.35;1.77;;;11.60;99.90;;;;;;4964400;28;20198;-56
2022/10/06 03:43:09;;;;;;;6.15;2.60;;;11.50;99.90;;;;;;4963741;28;20053;-55
2022/10/06 03:45:37;;;;;;;5.13;2.40;;;11.50;99.90;;;;;;4967547;28;20189;-56
2022/10/06 03:48:04;;;;;;;3.83;2.03;;;11.40;99.90;;;;;;4962715;28;20577;-57
2022/10/06 03:50:30;;;;;;;;;;;11.40;99.90;;;;;;4962503;28;20373;-57
2022/10/06 03:52:58;;;;;;;6.68;3.38;;;11.40;99.90;;;;;;4967138;28;19966;-56
2022/10/06 03:55:25;;;;;;;5.07;2.55;;;11.40;99.90;;;;;;4963942;28;20882;-57
2022/10/06 03:57:52;;;;;;;6.82;2.97;;;11.30;99.90;;;;;;4962621;28;20384;-57
2022/10/06 04:00:19;;;;;;;6.53;2.80;;;11.30;99.90;;;;;;4936000;28;20393;-57
2022/10/06 04:02:48;;;;;;;13.45;3.08;;;11.30;99.90;;;;;;4966799;28;20589;-56
2022/10/06 04:05:15;;;;;;;6.00;3.15;;;11.30;99.90;;;;;;4969923;28;20514;-55
2022/10/06 04:07:41;;;;;;;;;;;11.30;99.90;;;;;;4960295;28;20041;-57
2022/10/06 04:10:09;;;;;;;4.35;2.92;;;11.30;99.90;;;;;;4965402;28;19924;-56
2022/10/06 04:12:36;;;;;;;5.38;3.10;;;11.30;99.90;;;;;;4964085;28;20256;-57
2022/10/06 04:15:03;;;;;;;4.50;2.60;;;11.20;99.90;;;;;;4961718;28;20164;-55
2022/10/06 04:17:30;;;;;;;6.35;3.08;;;11.30;99.90;;;;;;4960298;28;20211;-56
2022/10/06 04:19:57;;;;;;;5.93;2.50;;;11.30;99.90;;;;;;4965534;28;20045;-56
2022/10/06 04:22:24;;;;;;;2.95;2.00;;;11.20;99.90;;;;;;4962769;28;20048;-57
2022/10/06 04:24:51;;;;;;;6.30;2.58;;;11.20;99.90;;;;;;4949177;28;20056;-56
2022/10/06 04:27:27;;;;;;;4.25;2.58;;;11.20;99.90;;;;;;4965688;28;20547;-55
2022/10/06 04:30:01;;;;;;;6.07;2.30;;;11.20;99.90;;;;;;4952402;28;20437;-55
2022/10/06 04:32:30;;;;;;;3.80;2.45;;;11.20;99.90;;;;;;4971179;28;20292;-54
2022/10/06 04:34:57;;;;;;;;;;;11.10;99.90;;;;;;4952762;28;20346;-54
2022/10/06 04:37:27;;;;;;;4.95;2.67;;;11.10;99.90;;;;;;4957254;28;20114;-53
2022/10/06 04:39:54;;;;;;;6.95;2.70;;;11.10;99.90;;;;;;4960946;28;20360;-59
2022/10/06 04:42:22;;;;;;;2.83;2.17;;;11.10;99.90;;;;;;4959372;28;20539;-55
2022/10/06 04:44:49;;;;;;;;;;;11.00;99.90;;;;;;4963832;28;20903;-58
2022/10/06 04:47:16;;;;;;;6.68;2.83;;;10.90;99.90;;;;;;4958701;28;19925;-54
2022/10/06 04:49:43;;;;;;;9.88;3.15;;;10.90;99.90;;;;;;4960250;28;20923;-55
2022/10/06 04:52:10;;;;;;;4.45;2.45;;;10.80;99.90;;;;;;4951763;28;20490;-55
2022/10/06 04:54:39;;;;;;;6.68;2.42;;;10.70;99.90;;;;;;4957817;28;20383;-56
2022/10/06 04:57:08;;;;;;;2.70;2.17;;;10.60;99.90;;;;;;4957437;28;20080;-55
2022/10/06 05:02:22;;;;;;;2.70;2.38;;;10.50;99.90;;;;;;4953208;28;20046;-55
2022/10/06 05:04:52;;;;;;;7.50;2.28;;;10.50;99.90;;;;;;4961404;28;20369;-54
2022/10/06 05:07:21;;;;;;;5.35;2.67;;;10.40;99.90;;;;;;4962443;28;20464;-55
2022/10/06 05:09:48;;;;;;;;;;;10.40;99.90;;;;;;4960986;28;20914;-53
2022/10/06 05:12:16;;;;;;;17.38;3.10;;;10.40;99.90;;;;;;4961969;28;20290;-55
2022/10/06 05:14:45;;;;;;;;;;;10.40;99.90;;;;;;4965025;28;20400;-54
2022/10/06 05:17:13;;;;;;;6.25;3.05;;;10.30;99.90;;;;;;4964558;28;20703;-53
2022/10/06 05:19:40;;;;;;;2.53;2.00;;;10.30;99.90;;;;;;4962668;28;20254;-58
2022/10/06 05:22:07;;;;;;;10.65;2.72;;;10.30;99.90;;;;;;4961409;28;20271;-54
2022/10/06 05:24:35;;;;;;;6.05;2.25;;;10.30;99.90;;;;;;4946362;28;20326;-54
2022/10/06 05:27:02;;;;;;;3.35;2.45;;;10.30;99.90;;;;;;4963383;28;20584;-54
2022/10/06 05:29:31;;;;;;;4.90;2.70;;;10.30;99.90;;;;;;4966884;28;20217;-55
2022/10/06 05:31:57;;;;;;;;;;;10.30;99.90;;;;;;4965840;28;20485;-54
2022/10/06 05:34:26;;;;;;;5.78;2.97;;;10.30;99.90;;;;;;4943012;28;20411;-53
2022/10/06 05:36:54;;;;;;;7.07;2.58;;;10.20;99.90;;;;;;4961486;28;20042;-56
2022/10/06 05:39:21;;;;;;;6.15;2.58;;;10.30;99.90;;;;;;4950922;28;20490;-55
2022/10/06 05:41:52;;;;;;;4.07;2.30;;;10.20;99.90;;;;;;4948860;28;20601;-56
2022/10/06 05:44:19;;;;;;;3.42;2.30;;;10.30;99.90;;;;;;4959469;28;20357;-54
2022/10/06 05:46:47;;;;;;;5.50;2.08;;;10.30;99.90;;;;;;4957509;28;20412;-53
2022/10/06 05:49:14;;;;;;;5.30;2.78;;;10.30;99.90;;;;;;4934564;28;20064;-53
2022/10/06 05:51:49;;;;;;;6.43;2.75;;;10.30;99.90;;;;;;4960263;28;20107;-54
2022/10/06 05:54:23;;;;;;;5.95;2.42;;;10.30;99.90;;;;;;4964247;28;20579;-52
2022/10/06 05:56:50;;;;;;;6.03;2.50;;;10.30;99.90;;;;;;4959463;28;20330;-52
2022/10/06 05:59:17;;;;;;;3.95;2.20;;;10.40;99.90;;;;;;4961110;28;20313;-54
2022/10/06 06:01:45;;;;;;;3.05;2.17;;;10.40;99.90;;;;;;4966110;28;20390;-56
2022/10/06 06:04:25;;;;;;;3.08;2.03;;;10.50;99.90;;;;;;4958718;28;20270;-56
2022/10/06 06:06:55;;;;;;;6.20;2.58;;;10.60;99.90;;;;;;4961233;28;20495;-54
2022/10/06 06:09:25;;;;;;;3.25;2.20;;;10.70;99.90;;;;;;4961352;28;20058;-52
2022/10/06 06:11:54;;;;;;;4.53;2.80;;;10.80;99.90;;;;;;4961112;28;20400;-55
2022/10/06 06:17:20;;;;;;;4.70;2.53;;;11.20;99.90;;;;;;4961260;28;20318;-56
2022/10/06 06:19:47;;;;;;;6.97;2.80;;;11.50;99.90;;;;;;4973423;28;20885;-54
2022/10/06 06:22:15;;;;;;;13.60;3.15;;;11.70;99.90;;;;;;4961414;28;20295;-55
2022/10/06 06:24:44;;;;;;;6.35;3.05;;;12.00;99.90;;;;;;4959835;28;20381;-55
2022/10/06 06:27:11;;;;;;;3.88;2.15;;;12.20;99.90;;;;;;4951439;28;20481;-54
2022/10/06 06:29:39;;;;;;;4.85;2.75;;;12.50;99.90;;;;;;4960519;28;20499;-55
2022/10/06 06:32:08;;;;;;;9.15;2.67;;;12.80;99.90;;;;;;4962728;28;20325;-54
2022/10/06 06:34:36;;;;;;;9.30;2.83;;;13.00;99.90;;;;;;4960065;28;20517;-54
2022/10/06 06:37:03;;;;;;;5.82;2.80;;;13.20;99.90;;;;;;4952225;28;20313;-54
2022/10/06 06:39:37;;;;;;;5.95;2.83;;;13.40;99.90;;;;;;4956682;28;20265;-53
2022/10/06 06:42:07;;;;;;;3.95;2.50;;;13.50;99.90;;;;;;4971268;28;20520;-53
2022/10/06 06:44:49;;;;;;;8.27;2.80;;;13.70;99.90;;;;;;4956156;28;20255;-54
2022/10/06 06:47:24;;;;;;;6.45;2.97;;;14.10;99.90;;;;;;4960340;28;20085;-52
2022/10/06 06:49:53;;;;;;;4.45;2.50;;;14.50;99.90;;;;;;4966733;28;20403;-54
2022/10/06 06:52:25;;;;;;;6.45;2.42;;;14.80;99.90;;;;;;4962970;28;20361;-54
2022/10/06 06:54:53;;;;;;;4.43;2.47;;;15.00;99.90;;;;;;4978535;28;21177;-54
2022/10/06 06:57:21;;;;;;;8.98;3.10;;;15.30;99.90;;;;;;4963421;28;20379;-53
2022/10/06 06:59:51;;;;;;;4.35;2.90;;;15.60;99.90;;;;;;4939967;28;20398;-54
2022/10/06 07:02:18;;;;;;;7.80;2.70;;;15.90;99.90;;;;;;4981489;28;20210;-55
2022/10/06 07:04:47;;;;;;;6.70;2.78;;;16.10;99.90;;;;;;4972374;28;20387;-54
2022/10/06 07:07:18;;;;;;;6.88;2.88;;;16.30;99.90;;;;;;4970659;28;20471;-56
2022/10/06 07:09:45;;;;;;;3.25;2.38;;;16.60;99.90;;;;;;4968160;28;20312;-55
2022/10/06 07:12:13;;;;;;;5.32;2.30;;;16.80;99.90;;;;;;4953193;28;20322;-54
2022/10/06 07:26:04;;;;;;;4.20;2.60;;;18.40;99.90;;;;;;4956504;28;20292;-55
2022/10/06 07:28:31;;;;;;;5.55;3.15;;;18.70;99.90;;;;;;4982499;28;20305;-56
2022/10/06 07:31:00;;;;;;;6.78;2.58;;;18.90;99.90;;;;;;4952009;28;20057;-56
2022/10/06 07:33:31;;;;;;;3.20;2.30;;;19.20;99.90;;;;;;4965306;28;20243;-55
2022/10/06 07:36:01;;;;;;;5.95;3.63;;;19.40;99.90;;;;;;4978795;28;20056;-58
2022/10/06 07:38:30;;;;;;;7.00;2.40;;;19.60;99.90;;;;;;4967130;28;20044;-54
2022/10/06 07:40:57;;;;;;;11.30;2.88;;;19.90;99.90;;;;;;4965573;28;20154;-56
2022/10/06 07:43:49;;;;;;;3.67;2.63;;;20.10;99.90;;;;;;4959967;28;20107;-52
2022/10/06 07:46:17;;;;;;;8.88;2.85;;;20.40;99.90;;;;;;4957605;28;20240;-53
2022/10/06 07:49:05;;;;;;;6.93;2.67;;;20.60;99.90;;;;;;4961951;28;20218;-54
2022/10/06 07:51:32;;;;;;;4.32;2.67;;;21.00;99.90;;;;;;4965225;28;20202;-54
2022/10/06 07:54:01;;;;;;;4.80;2.50;;;21.30;99.90;;;;;;4960291;28;20037;-59
2022/10/06 07:56:44;;;;;;;4.03;3.00;;;21.60;99.90;;;;;;4959326;28;20049;-56
2022/10/06 07:59:12;;;;;;;6.35;2.58;;;21.80;99.90;;;;;;4959662;28;20361;-54
2022/10/06 08:01:39;;;;;;;5.10;2.60;;;21.80;98.10;;;;;;4957994;28;20309;-54
2022/10/06 08:04:06;;;;;;;6.35;2.88;;;21.70;99.10;;;;;;4962823;28;20333;-55
2022/10/06 08:06:33;;;;;;;8.38;3.28;;;21.70;98.40;;;;;;4959964;28;20068;-55
2022/10/06 08:09:01;;;;;;;5.70;2.72;;;21.70;98.30;;;;;;4943853;28;20616;-55
2022/10/06 08:11:27;;;;;;;9.68;2.75;;;21.70;99.10;;;;;;4963617;28;20504;-55
2022/10/06 08:13:54;;;;;;;5.05;2.65;;;21.80;98.10;;;;;;4975143;28;20296;-54
2022/10/06 08:16:28;;;;;;;11.48;3.03;;;21.80;97.20;;;;;;4962892;28;20109;-55
2022/10/06 08:18:58;;;;;;;6.60;2.95;;;21.90;94.70;;;;;;4961078;28;20048;-54
2022/10/06 08:21:28;;;;;;;4.63;2.33;;;21.90;96.50;;;;;;4960939;28;20361;-54
2022/10/06 08:23:57;;;;;;;7.75;2.08;;;22.00;93.30;;;;;;4973279;28;20424;-55
2022/10/06 08:26:25;;;;;;;9.00;2.95;;;22.10;93.50;;;;;;4967944;28;20175;-54
2022/10/06 08:28:56;;;;;;;4.43;2.30;;;22.20;92.70;;;;;;4968735;28;20058;-53
2022/10/06 08:31:23;;;;;;;5.30;2.40;;;22.40;91.50;;;;;;4960043;28;20041;-55
2022/10/06 08:33:55;;;;;;;4.55;2.22;;;22.40;88.70;;;;;;4960873;28;20602;-54
2022/10/06 08:36:28;;;;;;;7.60;2.25;;;22.60;85.80;;;;;;4960856;28;20690;-59
2022/10/06 08:38:59;;;;;;;4.90;2.53;;;22.80;86.50;;;;;;4960623;28;20708;-54
2022/10/06 08:41:39;;;;;;;11.35;2.40;;;22.90;85.60;;;;;;4945891;28;20639;-57
2022/10/06 08:44:18;;;;;;;5.88;2.90;;;23.00;82.70;;;;;;4952535;28;20547;-55
2022/10/06 08:47:12;;;;;;;6.03;2.35;;;23.10;82.70;;;;;;4962058;28;20049;-58
2022/10/06 08:49:43;;;;;;;6.78;2.78;;;23.30;80.00;;;;;;4958994;28;20279;-56
2022/10/06 08:52:38;;;;;;;3.42;2.00;;;23.50;78.40;;;;;;4959506;28;20639;-55
2022/10/06 08:55:23;;;;;;;4.65;2.20;;;23.60;75.00;;;;;;4960797;28;20346;-56
2022/10/06 08:58:12;;;;;;;6.00;2.65;;;23.80;69.90;;;;;;4961494;28;20188;-58
2022/10/06 09:00:39;;;;;;;4.78;2.20;;;23.70;69.00;;;;;;4960100;28;20213;-58
2022/10/06 09:03:25;;;;;;;3.15;1.77;;;23.70;73.10;;;;;;4962813;28;20610;-53
2022/10/06 09:06:00;;;;;;;5.18;2.08;;;23.70;69.60;;;;;;4959720;28;20306;-54
2022/10/06 09:08:42;;;;;;;6.20;2.15;;;23.90;66.60;;;;;;4944270;28;20413;-55
2022/10/06 09:11:09;;;;;;;4.32;1.73;;;23.80;64.40;;;;;;4959631;28;20448;-55
2022/10/06 09:13:44;;;;;;;6.55;2.00;;;23.80;62.80;;;;;;4961326;28;20418;-54
2022/10/06 09:16:18;;;;;;;4.72;2.08;;;23.80;62.90;;;;;;4959275;28;20042;-55
2022/10/06 09:18:51;;;;;;;4.75;1.90;;;23.80;65.00;;;;;;4946720;28;20064;-54
2022/10/06 09:21:51;;;;;;;6.43;2.40;;;24.00;67.10;;;;;;4961158;28;20260;-55
2022/10/06 09:24:31;;;;;;;4.13;2.33;;;24.10;63.30;;;;;;4955634;28;20618;-51
2022/10/06 09:26:58;;;;;;;7.82;2.33;;;24.20;64.60;;;;;;4964555;28;20413;-53
2022/10/06 09:29:30;;;;;;;9.15;2.40;;;24.30;60.20;;;;;;4961073;28;20483;-57
2022/10/06 09:31:58;;;;;;;7.05;2.92;;;24.30;60.80;;;;;;4961387;28;20503;-56
2022/10/06 09:34:48;;;;;;;5.88;2.28;;;24.10;62.10;;;;;;4960586;28;20321;-56
2022/10/06 09:37:15;;;;;;;4.07;2.13;;;24.00;62.80;;;;;;4955014;28;20217;-60
2022/10/06 09:39:46;;;;;;;4.53;1.90;;;24.10;65.00;;;;;;4956704;28;20045;-57
2022/10/06 09:42:27;;;;;;;5.72;2.17;;;24.30;60.40;;;;;;4961349;28;20701;-55
2022/10/06 09:45:16;;;;;;;2.30;2.00;;;24.40;60.60;;;;;;4959755;28;20083;-56
2022/10/06 09:47:44;;;;;;;8.48;2.10;;;24.40;63.30;;;;;;4960055;28;20041;-58
2022/10/06 09:50:16;;;;;;;4.65;2.20;;;24.40;61.80;;;;;;4955069;28;20535;-57
2022/10/06 09:53:02;;;;;;;4.43;2.08;;;24.50;60.20;;;;;;4963516;28;20633;-54
2022/10/06 09:55:42;;;;;;;4.18;1.77;;;24.60;57.90;;;;;;4959631;28;21000;-57
2022/10/06 09:58:19;;;;;;;5.05;2.22;;;24.60;58.90;;;;;;4952415;28;20809;-57
2022/10/06 10:01:01;;;;;;;2.92;1.90;;;24.80;58.90;;;;;;4958892;28;20041;-58
2022/10/06 10:03:51;;;;;;;7.22;2.40;;;24.90;57.70;;;;;;4955372;28;20514;-57
2022/10/06 10:06:39;;;;;;;2.92;2.33;;;24.90;57.80;;;;;;4959453;28;20046;-56
2022/10/06 10:09:12;;;;;;;3.83;1.98;;;24.90;59.10;;;;;;4964463;28;20262;-58
2022/10/06 10:14:37;;;;;;;6.43;2.80;;;25.00;57.30;;;;;;4959879;28;20046;-58
2022/10/06 10:17:14;;;;;;;5.30;2.75;;;25.00;58.00;;;;;;4959855;28;20385;-58
2022/10/06 10:19:43;;;;;;;8.15;2.38;;;24.90;58.80;;;;;;4959049;28;20360;-57
2022/10/06 10:22:24;;;;;;;2.90;1.90;;;24.90;59.30;;;;;;4955951;28;20215;-56
2022/10/06 10:25:23;;;;;;;4.05;2.42;;;24.90;58.00;;;;;;4953519;28;20326;-55
2022/10/06 10:28:05;;;;;;;5.72;2.30;;;25.00;59.20;;;;;;4957494;28;20139;-56
2022/10/06 10:30:44;;;;;;;3.30;2.42;;;25.20;58.30;;;;;;4965753;28;20316;-57
2022/10/06 10:33:16;;;;;;;6.60;2.63;;;25.30;59.00;;;;;;4969048;28;20342;-56
2022/10/06 10:35:49;;;;;;;5.38;2.47;;;25.40;57.60;;;;;;4963065;28;20104;-57
2022/10/06 10:38:21;;;;;;;7.35;2.90;;;25.50;58.50;;;;;;4964526;28;20286;-56
2022/10/06 10:40:50;;;;;;;8.32;2.88;;;25.50;60.30;;;;;;4978515;28;20476;-57
2022/10/06 10:43:21;;;;;;;6.38;3.30;;;25.50;60.90;;;;;;4966774;28;20296;-55
2022/10/06 10:45:54;;;;;;;8.30;3.83;;;25.70;63.20;;;;;;4964693;28;20535;-56
2022/10/06 10:48:41;;;;;;;16.20;4.72;;;25.70;62.20;;;;;;4963303;28;20538;-58
2022/10/06 10:51:19;;;;;;;10.50;4.15;;;25.60;62.00;;;;;;4961220;28;20212;-57
2022/10/06 10:54:04;;;;;;;8.85;3.55;;;25.30;62.80;;;;;;4962795;28;20457;-57
2022/10/06 10:56:32;;;;;;;8.77;3.22;;;25.20;63.80;;;;;;4979014;28;20478;-57
2022/10/06 10:59:14;;;;;;;8.68;3.30;;;25.20;65.90;;;;;;4964805;28;20421;-57
2022/10/06 11:01:51;;;;;;;8.45;3.85;;;25.20;66.00;;;;;;4966619;28;20341;-57
2022/10/06 11:04:19;;;;;;;9.88;3.67;;;25.20;67.40;;;;;;4960936;28;20041;-56
2022/10/06 11:06:59;;;;;;;7.15;4.00;;;25.20;68.90;;;;;;4946561;28;20310;-57
2022/10/06 11:09:46;;;;;;;7.05;3.65;;;25.30;64.50;;;;;;4957969;28;20747;-55
2022/10/06 11:12:35;;;;;;;9.05;4.13;;;25.40;65.00;;;;;;4960895;28;20309;-57
2022/10/06 11:15:17;;;;;;;4.80;2.75;;;25.50;64.70;;;;;;4963244;28;20037;-56
2022/10/06 11:17:45;;;;;;;7.32;3.95;;;25.70;64.00;;;;;;4958664;28;20310;-57
2022/10/06 11:20:31;;;;;;;11.02;3.00;;;25.80;61.80;;;;;;4958096;28;20325;-57
2022/10/06 11:23:17;;;;;;;15.20;3.78;;;26.00;61.00;;;;;;4962300;28;20605;-58
2022/10/06 11:25:54;;;;;;;7.85;3.97;;;26.20;61.50;;;;;;4973078;28;20209;-58
2022/10/06 11:28:27;;;;;;;11.07;4.20;;;26.30;60.90;;;;;;4966370;28;20527;-55
2022/10/06 11:31:07;;;;;;;8.93;3.40;;;26.20;61.50;;;;;;4959641;28;20045;-57
2022/10/06 11:33:49;;;;;;;8.98;3.90;;;26.10;62.10;;;;;;4960277;28;20546;-56
2022/10/06 11:36:33;;;;;;;5.90;2.88;;;26.10;61.50;;;;;;4960996;28;20549;-55
2022/10/06 11:39:13;;;;;;;8.77;3.72;;;26.10;62.30;;;;;;4963694;28;20048;-57
2022/10/06 11:41:57;;;;;;;7.13;4.18;;;26.20;62.70;;;;;;4962769;28;20045;-57
2022/10/06 11:44:46;;;;;;;7.65;4.10;;;26.20;61.80;;;;;;4962447;28;20239;-56
2022/10/06 11:47:22;;;;;;;6.75;4.00;;;26.10;62.50;;;;;;4962046;28;20601;-57
2022/10/06 11:50:01;;;;;;;8.80;4.20;;;26.00;63.20;;;;;;4963158;28;20069;-57
2022/10/06 11:52:28;;;;;;;6.90;3.97;;;26.00;63.80;;;;;;4962107;28;20277;-55
2022/10/06 11:55:14;;;;;;;10.70;4.28;;;26.00;63.80;;;;;;4964143;28;20211;-58
2022/10/06 11:58:06;;;;;;;10.10;4.63;;;26.00;63.50;;;;;;4963030;28;20386;-56
2022/10/06 12:00:53;;;;;;;8.48;4.60;;;25.90;64.80;;;;;;4964550;28;20242;-57
2022/10/06 12:03:26;;;;;;;6.00;3.83;;;25.70;65.10;;;;;;4965277;28;20539;-56
2022/10/06 12:05:53;;;;;;;7.80;4.25;;;25.50;65.70;;;;;;4960716;28;20076;-56
2022/10/06 12:08:39;;;;;;;11.02;4.55;;;25.10;66.30;;;;;;4958049;28;20053;-56
2022/10/06 12:11:41;;;;;;;9.48;4.82;;;24.70;68.20;;;;;;4962280;28;20376;-57
2022/10/06 12:14:43;;;;;;;9.68;4.70;;;24.50;71.40;;;;;;4965109;28;20528;-57
2022/10/06 12:17:39;;;;;;;7.88;4.95;;;24.50;70.80;;;;;;4960425;28;20214;-57
2022/10/06 12:20:12;;;;;;;15.43;4.97;;;24.30;72.40;;;;;;4964385;28;20297;-55
2022/10/06 12:22:54;;;;;;;16.70;3.80;;;24.30;72.70;;;;;;4958796;28;20466;-57
2022/10/06 12:25:58;;;;;;;9.27;4.38;;;24.40;73.30;;;;;;4955269;28;20676;-55
2022/10/06 12:28:39;;;;;;;6.25;4.25;;;24.60;71.70;;;;;;4937624;28;20805;-55
2022/10/06 12:31:18;;;;;;;7.43;3.97;;;24.50;71.50;;;;;;4953938;28;20365;-57
2022/10/06 12:33:47;;;;;;;10.23;4.57;;;24.40;71.40;;;;;;4960663;28;20661;-57
2022/10/06 12:36:22;;;;;;;5.78;3.75;;;24.10;73.20;;;;;;4962495;28;20168;-56
2022/10/06 12:39:19;;;;;;;10.27;5.07;;;24.00;75.30;;;;;;4966687;28;20190;-56
2022/10/06 12:42:18;;;;;;;6.97;4.07;;;24.00;73.80;;;;;;4962832;28;20440;-55
2022/10/06 12:44:48;;;;;;;8.45;4.43;;;24.10;71.60;;;;;;4961996;28;20202;-56
2022/10/06 12:47:31;;;;;;;6.80;3.92;;;24.20;71.60;;;;;;4961155;28;21071;-55
2022/10/06 12:50:21;;;;;;;13.48;4.90;;;24.00;73.20;;;;;;4961483;28;20432;-56
2022/10/06 12:53:10;;;;;;;9.43;4.22;;;23.90;75.70;;;;;;4957327;28;20294;-59
2022/10/06 12:55:45;;;;;;;10.20;4.82;;;23.80;74.50;;;;;;4959655;28;20407;-57
2022/10/06 12:58:27;;;;;;;8.32;3.88;;;23.80;75.20;;;;;;4978916;28;20586;-56
2022/10/06 13:01:08;;;;;;;10.43;4.93;;;24.00;75.90;;;;;;4961715;28;20488;-57
2022/10/06 13:03:36;;;;;;;8.15;4.15;;;24.00;75.60;;;;;;4951110;28;20046;-57
2022/10/06 13:06:06;;;;;;;11.13;5.43;;;24.00;76.40;;;;;;4957828;28;20333;-57
2022/10/06 13:08:37;;;;;;;10.95;5.45;;;24.10;77.40;;;;;;4963820;28;20062;-57
2022/10/06 13:11:28;;;;;;;8.20;4.20;;;24.10;78.40;;;;;;4965351;28;20530;-56
2022/10/06 13:13:58;;;;;;;9.52;5.13;;;24.20;78.60;;;;;;4963585;28;20053;-57
2022/10/06 13:16:31;;;;;;;8.77;4.70;;;24.30;76.90;;;;;;4958494;28;20214;-55
2022/10/06 13:19:00;;;;;;;5.50;4.05;;;24.40;75.20;;;;;;4957118;28;20494;-56
2022/10/06 13:21:29;;;;;;;8.70;4.35;;;24.40;75.20;;;;;;4959746;28;20199;-56
2022/10/06 13:23:56;;;;;;;8.68;4.32;;;24.50;75.10;;;;;;4962171;28;20048;-57
2022/10/06 13:26:31;;;;;;;11.85;4.93;;;24.60;74.80;;;;;;4958000;28;20140;-57
2022/10/06 13:28:59;;;;;;;9.02;4.93;;;24.70;74.50;;;;;;4959880;28;20658;-56
2022/10/06 13:31:30;;;;;;;13.38;4.50;;;24.60;73.40;;;;;;4963280;28;20257;-56
2022/10/06 13:34:29;;;;;;;13.75;4.63;;;24.60;72.70;;;;;;4960837;28;20050;-56
2022/10/06 13:36:58;;;;;;;7.28;4.10;;;24.60;73.40;;;;;;4961876;28;20543;-57